createdAt,value
2023-02-13T13:57:15.686Z,990.99
2023-02-13T13:58:17.089Z,990.97
2023-02-13T13:59:16.937Z,990.97
2023-02-13T14:00:16.765Z,990.90
2023-02-13T14:01:16.762Z,990.92
2023-02-13T14:02:16.788Z,990.95
2023-02-13T14:03:16.715Z,990.94
2023-02-13T14:04:16.684Z,990.96
2023-02-13T14:05:16.703Z,990.95
2023-02-13T14:06:16.650Z,990.98
2023-02-13T14:07:16.940Z,990.98
2023-02-13T14:08:16.693Z,990.97
2023-02-13T14:09:16.634Z,990.93
2023-02-13T14:10:16.619Z,990.96
2023-02-13T14:11:16.597Z,990.93
2023-02-13T14:12:16.628Z,990.94
2023-02-13T14:13:16.618Z,990.94
2023-02-13T14:14:16.576Z,990.95
2023-02-13T14:15:16.564Z,990.89
2023-02-13T14:16:16.538Z,990.90
2023-02-13T14:17:16.564Z,990.91
2023-02-13T14:18:16.565Z,990.93
2023-02-13T14:19:16.504Z,990.88
2023-02-13T14:20:16.474Z,990.89
2023-02-13T14:21:16.501Z,990.92
2023-02-13T14:22:16.483Z,990.87
2023-02-13T14:23:16.485Z,990.87
2023-02-13T14:24:16.439Z,990.92
2023-02-13T14:25:16.436Z,990.84
2023-02-13T14:26:16.475Z,990.84
2023-02-13T14:27:16.428Z,990.80
2023-02-13T14:28:16.486Z,990.88
2023-02-13T14:29:16.430Z,990.88
2023-02-13T14:30:16.478Z,990.86
2023-02-13T14:31:16.459Z,990.77
2023-02-13T14:32:16.587Z,990.80
2023-02-13T14:33:16.390Z,990.76
2023-02-13T14:34:16.355Z,990.75
2023-02-13T14:35:16.333Z,990.70
2023-02-13T14:36:16.324Z,990.73
2023-02-13T14:37:16.321Z,990.66
2023-02-13T14:38:16.333Z,990.71
2023-02-13T14:39:16.293Z,990.69
2023-02-13T14:40:16.291Z,990.74
2023-02-13T14:41:16.245Z,990.70
2023-02-13T14:42:16.260Z,990.72
2023-02-13T14:43:16.250Z,990.67
2023-02-13T14:44:16.220Z,990.65
2023-02-13T14:45:16.280Z,990.76
2023-02-13T14:46:16.208Z,990.66
2023-02-13T14:47:16.199Z,990.69
2023-02-13T14:48:16.204Z,990.67
2023-02-13T14:49:16.151Z,990.68
2023-02-13T14:50:16.155Z,990.64
2023-02-13T14:51:17.156Z,990.61
2023-02-13T14:52:16.137Z,990.61
2023-02-13T14:53:16.153Z,990.61
2023-02-13T14:54:16.100Z,990.64
2023-02-13T14:55:16.121Z,990.57
2023-02-13T14:56:16.098Z,990.56
2023-02-13T14:57:16.078Z,990.55
2023-02-13T14:58:16.085Z,990.59
2023-02-13T14:59:16.060Z,990.54
2023-02-13T15:00:16.053Z,990.52
2023-02-13T15:01:16.113Z,990.54
2023-02-13T15:02:16.017Z,990.50
2023-02-13T15:03:16.068Z,990.43
2023-02-13T15:04:16.018Z,990.44
2023-02-13T15:05:15.979Z,990.48
2023-02-13T15:06:15.989Z,990.46
2023-02-13T15:07:15.981Z,990.39
2023-02-13T15:08:16.008Z,990.46
2023-02-13T15:09:15.946Z,990.45
2023-02-13T15:10:15.938Z,990.45
2023-02-13T15:11:15.923Z,990.50
2023-02-13T15:12:15.920Z,990.41
2023-02-13T15:13:15.903Z,990.48
2023-02-13T15:14:15.904Z,990.43
2023-02-13T15:15:15.870Z,990.46
2023-02-13T15:16:15.880Z,990.37
2023-02-13T15:17:15.867Z,990.45
2023-02-13T15:18:15.849Z,990.51
2023-02-13T15:19:15.867Z,990.40
2023-02-13T15:20:17.544Z,990.38
2023-02-13T15:21:15.807Z,990.36
2023-02-13T15:22:15.808Z,990.41
2023-02-13T15:23:15.801Z,990.46
2023-02-13T15:24:15.790Z,990.34
2023-02-13T15:25:15.765Z,990.43
2023-02-13T15:26:15.742Z,990.45
2023-02-13T15:27:15.733Z,990.44
2023-02-13T15:28:15.750Z,990.43
2023-02-13T15:29:25.845Z,990.49
2023-02-13T15:30:16.803Z,990.50
2023-02-13T15:31:15.802Z,990.49
2023-02-13T15:32:15.707Z,990.44
2023-02-13T15:33:15.673Z,990.47
2023-02-13T15:34:15.707Z,990.47
2023-02-13T15:35:15.643Z,990.46
2023-02-13T15:36:15.621Z,990.48
2023-02-13T15:37:15.616Z,990.34
2023-02-13T15:38:15.619Z,990.30
2023-02-13T15:39:15.647Z,990.31
2023-02-13T15:40:15.953Z,990.34
2023-02-13T15:41:15.564Z,990.33
2023-02-13T15:42:15.564Z,990.39
2023-02-13T15:43:15.551Z,990.41
2023-02-13T15:44:15.586Z,990.43
2023-02-13T15:45:15.537Z,990.36
2023-02-13T15:46:15.542Z,990.36
2023-02-13T15:47:15.502Z,990.35
2023-02-13T15:48:15.562Z,990.36
2023-02-13T15:49:15.892Z,990.36
2023-02-13T15:50:15.475Z,990.40
2023-02-13T15:51:15.448Z,990.43
2023-02-13T15:52:15.441Z,990.42
2023-02-13T15:53:15.478Z,990.40
2023-02-13T15:54:15.428Z,990.36
